Chama, Colorado
Current Conditions -  °F | °C
As of 7:31 PM on Wednesday 17 Dec 2014 (Local Time) from KVTP Reporting Station
Haze Haze  
Wind Chill: 12°   Ceiling: 100
Heat Index: 21°   Visibility: 2mi
Dew Point: 19°   Wind: 8mph
Humidity: 93%   Direction: 190°S
Pressure: 29.95"   Gusts: NA
Location:  37.16°N, 105.38°W
Report Text: KVTP 180231Z AUTO 19007KT 2SM BR OVC001 M06/M07 A2995 RMK AO2
Loading
Personal Weather Stations






























Interactive Weather Map New forecast layout! Learn more

10-Day Weather Forecast

Advertisements
Track Severe Weather on mobile